Time;durP1;ratioP1;P1;durP2;ratioP2;P2;SDS_P1;SDS_P2;PMS_P1;PMS_P2;Temp;Humidity;BMP_temperature;BMP_pressure;BME280_temperature;BME280_humidity;BME280_pressure;Samples;Min_cycle;Max_cycle;Signal;HPM_P1;HPM_P2
2023/07/19 00:00:10;;;;;;;8.00;4.77;;;;;;;25.77;100.00;101315.91;2073254;28;20647;-67
2023/07/19 00:01:10;;;;;;;11.50;5.00;;;;;;;25.76;100.00;101308.69;2071408;28;20622;-67
2023/07/19 00:02:11;;;;;;;9.13;4.63;;;;;;;25.74;100.00;101313.34;2071079;28;20417;-67
2023/07/19 00:03:11;;;;;;;8.40;4.27;;;;;;;25.74;100.00;101316.19;2071746;28;20193;-67
2023/07/19 00:04:11;;;;;;;7.80;4.60;;;;;;;25.62;100.00;101297.59;2071990;28;20181;-67
2023/07/19 00:05:12;;;;;;;7.00;4.50;;;;;;;25.54;100.00;101294.53;2071921;28;20178;-67
2023/07/19 00:06:12;;;;;;;9.43;4.70;;;;;;;25.65;100.00;101310.78;2071768;28;20178;-67
2023/07/19 00:07:13;;;;;;;9.87;4.63;;;;;;;25.64;100.00;101312.06;2072699;28;20380;-67
2023/07/19 00:08:14;;;;;;;9.17;4.80;;;;;;;25.63;100.00;101313.34;2072198;28;20663;-67
2023/07/19 00:09:14;;;;;;;8.57;4.63;;;;;;;25.60;100.00;101317.25;2071627;28;20198;-67
2023/07/19 00:10:15;;;;;;;7.57;4.60;;;;;;;25.58;100.00;101311.31;2077560;28;20224;-67
2023/07/19 00:11:15;;;;;;;7.43;4.70;;;;;;;25.11;100.00;101238.63;2081424;28;20650;-67
2023/07/19 00:12:16;;;;;;;8.87;4.77;;;;;;;25.60;100.00;101314.41;2078714;28;20208;-67
2023/07/19 00:13:16;;;;;;;6.60;4.63;;;;;;;25.59;100.00;101312.84;2073548;28;20182;-67
2023/07/19 00:14:16;;;;;;;8.57;4.23;;;;;;;25.58;100.00;101317.75;2073559;28;20570;-67
2023/07/19 00:15:17;;;;;;;7.17;4.80;;;;;;;25.49;100.00;101320.88;2081891;28;20557;-67
2023/07/19 00:16:17;;;;;;;12.63;4.67;;;;;;;25.36;100.00;101325.53;2074045;28;20244;-67
2023/07/19 00:17:18;;;;;;;9.27;4.67;;;;;;;25.36;100.00;101322.69;2073526;28;20679;-67
2023/07/19 00:18:18;;;;;;;8.17;4.80;;;;;;;25.36;100.00;101320.63;2073387;28;20197;-67
2023/07/19 00:19:18;;;;;;;8.90;4.87;;;;;;;25.32;100.00;101328.63;2073309;28;20233;-67
2023/07/19 00:20:19;;;;;;;9.00;4.27;;;;;;;25.27;100.00;101311.59;2076214;28;20200;-67
2023/07/19 00:21:19;;;;;;;12.00;4.57;;;;;;;25.33;100.00;101320.91;2079642;28;20264;-67
2023/07/19 00:22:20;;;;;;;9.27;4.90;;;;;;;25.31;100.00;101312.13;2073271;28;20177;-67
2023/07/19 00:23:21;;;;;;;6.90;4.33;;;;;;;25.33;100.00;101318.81;2078839;28;20305;-67
2023/07/19 00:24:21;;;;;;;6.67;4.17;;;;;;;25.36;100.00;101317.03;2076021;28;20585;-67
2023/07/19 00:25:21;;;;;;;10.97;4.50;;;;;;;25.39;100.00;101313.91;2073683;28;20243;-67
2023/07/19 00:26:22;;;;;;;9.77;4.37;;;;;;;25.23;100.00;101294.06;2073245;28;20603;-67
2023/07/19 00:27:22;;;;;;;9.33;4.40;;;;;;;25.42;100.00;101320.63;2073463;28;20629;-67
2023/07/19 00:28:23;;;;;;;8.27;4.03;;;;;;;25.41;100.00;101317.03;2074026;28;20188;-67
2023/07/19 00:29:23;;;;;;;8.63;4.03;;;;;;;25.44;100.00;101315.97;2073424;28;20568;-67
2023/07/19 00:30:24;;;;;;;7.50;4.60;;;;;;;25.45;100.00;101311.06;2073252;28;20213;-67
2023/07/19 00:31:24;;;;;;;9.33;4.40;;;;;;;25.46;100.00;101306.94;2072649;28;20583;-67
2023/07/19 00:32:24;;;;;;;10.67;4.60;;;;;;;25.47;100.00;101305.66;2073152;28;20551;-67
2023/07/19 00:33:25;;;;;;;7.63;4.27;;;;;;;25.42;100.00;101309.25;2073542;28;20618;-67
2023/07/19 00:34:25;;;;;;;7.07;4.50;;;;;;;25.40;100.00;101306.97;2073350;28;20217;-67
2023/07/19 00:35:26;;;;;;;7.07;4.53;;;;;;;25.43;100.00;101308.00;2072955;28;20609;-67
2023/07/19 00:36:26;;;;;;;9.03;4.37;;;;;;;25.47;100.00;101306.44;2082093;28;20683;-67
2023/07/19 00:37:27;;;;;;;8.80;4.80;;;;;;;25.48;100.00;101304.38;2074253;28;20810;-67
2023/07/19 00:38:27;;;;;;;6.13;4.53;;;;;;;25.47;100.00;101303.59;2073120;28;20204;-67
2023/07/19 00:39:27;;;;;;;7.63;4.40;;;;;;;25.46;100.00;101302.06;2073420;28;20202;-67
2023/07/19 00:40:32;;;;;;;8.33;4.73;;;;;;;25.48;100.00;101305.13;2076614;28;20201;-67
2023/07/19 00:41:33;;;;;;;7.17;3.83;;;;;;;25.46;100.00;101302.06;2078102;28;20572;-67
2023/07/19 00:42:33;;;;;;;6.60;4.30;;;;;;;25.48;100.00;101307.22;2072972;28;20222;-67
2023/07/19 00:43:35;;;;;;;6.73;4.20;;;;;;;25.48;100.00;101301.53;2073198;28;20189;-67
2023/07/19 00:44:36;;;;;;;9.60;4.53;;;;;;;25.48;100.00;101307.97;2072921;28;20224;-67
2023/07/19 00:45:45;;;;;;;6.70;4.27;;;;;;;24.59;100.00;101172.47;2074108;28;20196;-67
2023/07/19 00:46:45;;;;;;;6.70;4.30;;;;;;;25.47;100.00;101312.09;2073946;28;20253;-67
2023/07/19 00:47:46;;;;;;;7.03;4.30;;;;;;;25.37;100.00;101305.16;2073385;28;20200;-67
2023/07/19 00:48:47;;;;;;;6.63;4.33;;;;;;;24.72;100.00;101204.66;2078856;28;20342;-68
2023/07/19 00:49:47;;;;;;;6.03;4.00;;;;;;;25.42;100.00;101297.91;2081411;28;20217;-68
2023/07/19 00:50:50;;;;;;;9.60;4.30;;;;;;;25.19;100.00;101265.94;2077202;28;20280;-68
2023/07/19 00:51:50;;;;;;;7.70;4.60;;;;;;;25.47;100.00;101297.91;2073088;28;20719;-68
2023/07/19 00:52:51;;;;;;;6.37;4.70;;;;;;;25.07;100.00;101238.91;2072835;28;20617;-68
2023/07/19 00:53:53;;;;;;;7.97;4.33;;;;;;;25.48;100.00;101302.28;2073137;28;20245;-68
2023/07/19 00:54:54;;;;;;;6.07;4.40;;;;;;;25.50;100.00;101304.63;2073934;28;20254;-68
2023/07/19 00:55:55;;;;;;;7.33;4.20;;;;;;;25.50;100.00;101307.47;2073082;28;20189;-68
2023/07/19 00:56:56;;;;;;;8.40;4.27;;;;;;;25.49;100.00;101303.09;2073713;28;20197;-68
2023/07/19 00:57:57;;;;;;;9.07;4.40;;;;;;;25.45;100.00;101308.25;2073058;28;20726;-68
2023/07/19 00:58:58;;;;;;;9.23;4.17;;;;;;;25.29;100.00;101287.09;2077811;28;20223;-68
2023/07/19 00:59:59;;;;;;;12.83;4.40;;;;;;;25.30;100.00;101296.41;2077535;28;20272;-68
2023/07/19 01:00:59;;;;;;;8.80;4.50;;;;;;;24.23;100.00;101148.75;2072872;28;20189;-68
2023/07/19 01:02:01;;;;;;;11.40;4.40;;;;;;;25.25;100.00;101294.31;2073920;28;20213;-68
2023/07/19 01:03:02;;;;;;;6.50;4.43;;;;;;;24.86;100.00;101248.19;2080130;28;20196;-68
2023/07/19 01:04:03;;;;;;;6.73;4.60;;;;;;;24.53;100.00;101183.78;2081895;28;20186;-68
2023/07/19 01:05:03;;;;;;;6.80;4.33;;;;;;;25.24;100.00;101299.19;2073813;28;20181;-68
2023/07/19 01:06:05;;;;;;;6.33;4.37;;;;;;;25.21;100.00;101283.22;2072832;28;20189;-68
2023/07/19 01:07:05;;;;;;;7.77;4.60;;;;;;;25.27;100.00;101284.03;2073201;28;20199;-68
2023/07/19 01:08:06;;;;;;;8.13;4.43;;;;;;;25.22;100.00;101281.94;2073288;28;20194;-68
2023/07/19 01:09:07;;;;;;;10.10;4.80;;;;;;;25.26;100.00;101279.66;2072964;28;20198;-68
2023/07/19 01:10:08;;;;;;;7.90;4.70;;;;;;;25.30;100.00;101273.69;2073242;28;20205;-68
2023/07/19 01:11:09;;;;;;;8.77;4.43;;;;;;;25.17;100.00;101251.53;2072827;28;20223;-68
2023/07/19 01:12:09;;;;;;;9.03;4.53;;;;;;;25.32;100.00;101273.94;2073077;28;20213;-68
2023/07/19 01:13:11;;;;;;;9.60;4.50;;;;;;;25.33;100.00;101272.69;2073511;28;20716;-68
2023/07/19 01:14:12;;;;;;;9.77;4.97;;;;;;;25.31;100.00;101270.34;2073231;28;20185;-68
2023/07/19 01:15:12;;;;;;;8.77;4.77;;;;;;;25.32;100.00;101266.22;2073997;28;20685;-68
2023/07/19 01:16:13;;;;;;;14.13;5.23;;;;;;;25.33;100.00;101270.59;2072864;28;20580;-68
2023/07/19 01:17:13;;;;;;;11.20;5.03;;;;;;;25.32;100.00;101269.06;2073172;28;20574;-68
2023/07/19 01:18:14;;;;;;;14.37;4.90;;;;;;;25.31;100.00;101266.72;2073097;28;20198;-68
2023/07/19 01:19:16;;;;;;;12.63;5.30;;;;;;;25.23;100.00;101265.69;2072546;28;20623;-68
2023/07/19 01:20:16;;;;;;;10.43;4.70;;;;;;;25.20;100.00;101269.56;2072910;28;20188;-68
2023/07/19 01:21:17;;;;;;;9.27;4.30;;;;;;;25.16;100.00;101266.22;2072816;28;20192;-67
2023/07/19 01:22:17;;;;;;;12.00;4.37;;;;;;;25.13;100.00;101270.84;2072604;28;20236;-67
2023/07/19 01:23:18;;;;;;;9.60;4.63;;;;;;;25.11;100.00;101267.78;2073301;28;20592;-67
2023/07/19 01:24:18;;;;;;;11.17;4.10;;;;;;;25.11;100.00;101267.00;2073050;28;20197;-67
2023/07/19 01:25:19;;;;;;;10.50;4.37;;;;;;;25.08;100.00;101268.03;2072918;28;20205;-67
2023/07/19 01:26:19;;;;;;;7.80;4.27;;;;;;;25.05;100.00;101269.06;2076317;28;20601;-68
2023/07/19 01:27:20;;;;;;;13.60;4.30;;;;;;;25.01;100.00;101260.81;2083135;28;20189;-68
2023/07/19 01:28:20;;;;;;;11.27;4.50;;;;;;;25.01;100.00;101257.19;2087142;28;20211;-68
2023/07/19 01:29:21;;;;;;;11.87;4.50;;;;;;;25.01;100.00;101263.66;2073539;28;20186;-68
2023/07/19 01:30:21;;;;;;;8.87;4.20;;;;;;;24.97;100.00;101256.72;2073299;28;20230;-68
2023/07/19 01:31:22;;;;;;;7.63;4.60;;;;;;;24.99;100.00;101257.75;2072737;28;20205;-68
2023/07/19 01:32:22;;;;;;;8.20;4.13;;;;;;;24.97;100.00;101260.31;2072770;28;20663;-68
2023/07/19 01:33:22;;;;;;;5.80;4.37;;;;;;;24.96;100.00;101257.97;2073056;28;20663;-68
2023/07/19 01:34:23;;;;;;;7.90;4.33;;;;;;;24.96;100.00;101260.81;2072852;28;20651;-68
2023/07/19 01:35:23;;;;;;;7.00;4.30;;;;;;;24.90;100.00;101257.22;2072956;28;20641;-67
2023/07/19 01:36:25;;;;;;;13.93;4.63;;;;;;;24.86;100.00;101254.66;2073078;28;20270;-67
2023/07/19 01:37:29;;;;;;;6.87;4.53;;;;;;;24.85;100.00;101255.94;2072959;28;20252;-68
2023/07/19 01:38:30;;;;;;;9.07;4.60;;;;;;;24.86;100.00;101279.38;2081477;28;20194;-68
2023/07/19 01:39:30;;;;;;;8.97;4.23;;;;;;;24.88;100.00;101265.47;2073529;28;20305;-68
2023/07/19 01:40:30;;;;;;;8.67;4.43;;;;;;;24.83;100.00;101267.00;2079609;28;20217;-67
2023/07/19 01:41:31;;;;;;;8.43;4.03;;;;;;;24.73;100.00;101267.78;2075102;28;20198;-67
2023/07/19 01:42:32;;;;;;;6.40;4.33;;;;;;;24.71;100.00;101270.38;2072445;28;20717;-67
2023/07/19 01:43:32;;;;;;;9.87;4.50;;;;;;;24.71;100.00;101271.13;2072898;28;20614;-67
2023/07/19 01:44:33;;;;;;;10.23;4.63;;;;;;;24.72;100.00;101271.91;2072642;28;20185;-67
2023/07/19 01:45:33;;;;;;;8.53;4.60;;;;;;;24.68;100.00;101275.03;2073690;28;20269;-67
2023/07/19 01:46:35;;;;;;;7.47;4.80;;;;;;;24.69;100.00;101282.22;2081590;28;20636;-67
2023/07/19 01:47:36;;;;;;;6.67;4.47;;;;;;;24.71;100.00;101276.06;2073503;28;20577;-67
2023/07/19 01:48:36;;;;;;;8.20;4.40;;;;;;;23.77;100.00;101122.13;2072513;28;20221;-68
2023/07/19 01:49:39;;;;;;;9.37;4.40;;;;;;;24.22;100.00;101194.56;2072792;28;20201;-68
2023/07/19 01:50:39;;;;;;;7.47;4.30;;;;;;;24.75;100.00;101268.81;2072209;28;20373;-68
2023/07/19 01:51:39;;;;;;;9.07;4.70;;;;;;;24.72;100.00;101267.00;2071860;28;20193;-68
2023/07/19 01:52:40;;;;;;;7.60;4.37;;;;;;;24.77;100.00;101268.31;2072471;28;20201;-68
2023/07/19 01:53:40;;;;;;;10.87;4.63;;;;;;;24.78;100.00;101267.78;2072911;28;20209;-68
2023/07/19 01:54:41;;;;;;;8.60;4.57;;;;;;;24.74;100.00;101278.63;2072771;28;20227;-68
2023/07/19 01:55:41;;;;;;;7.00;4.90;;;;;;;24.55;100.00;101252.03;2073481;28;20247;-69
2023/07/19 01:56:42;;;;;;;6.60;4.07;;;;;;;24.75;100.00;101273.72;2072685;28;20197;-68
2023/07/19 01:57:42;;;;;;;10.00;4.57;;;;;;;24.73;100.00;101277.09;2072746;28;20204;-68
2023/07/19 01:58:43;;;;;;;7.90;4.70;;;;;;;24.75;100.00;101271.66;2072413;28;20690;-69
2023/07/19 01:59:43;;;;;;;6.07;4.07;;;;;;;24.77;100.00;101265.47;2072818;28;20244;-68
2023/07/19 02:00:44;;;;;;;6.10;4.20;;;;;;;24.73;100.00;101277.09;2073061;28;20284;-68
2023/07/19 02:01:44;;;;;;;9.33;4.40;;;;;;;24.77;100.00;101269.06;2078862;28;20654;-68
2023/07/19 02:02:45;;;;;;;9.07;4.57;;;;;;;24.78;100.00;101267.78;2072156;28;20666;-68
2023/07/19 02:03:45;;;;;;;6.57;4.43;;;;;;;24.80;100.00;101265.22;2073454;28;20182;-67
2023/07/19 02:04:45;;;;;;;8.37;4.60;;;;;;;24.80;100.00;101253.09;2080557;28;20197;-67
2023/07/19 02:05:58;;;;;;;6.23;4.27;;;;;;;24.81;100.00;101266.75;2080962;28;20678;-67
2023/07/19 02:06:59;;;;;;;6.33;4.53;;;;;;;24.82;100.00;101253.38;2073641;28;20203;-67
2023/07/19 02:07:59;;;;;;;5.70;4.23;;;;;;;24.84;100.00;101250.78;2072840;28;20201;-67
2023/07/19 02:09:00;;;;;;;7.13;4.40;;;;;;;24.84;100.00;101256.44;2071634;28;20691;-67
2023/07/19 02:10:01;;;;;;;8.43;4.60;;;;;;;24.89;100.00;101252.84;2072029;28;20197;-67
2023/07/19 02:11:01;;;;;;;8.13;4.67;;;;;;;24.86;100.00;101251.81;2072324;28;20208;-67
2023/07/19 02:12:01;;;;;;;7.53;4.50;;;;;;;24.90;100.00;101255.16;2072696;28;20174;-67
2023/07/19 02:13:02;;;;;;;6.43;4.30;;;;;;;24.93;100.00;101251.28;2072134;28;20265;-67
2023/07/19 02:14:03;;;;;;;6.57;4.43;;;;;;;24.95;100.00;101250.78;2081251;28;20177;-67
2023/07/19 02:15:04;;;;;;;9.73;4.33;;;;;;;24.97;100.00;101251.03;2080006;28;20185;-67
2023/07/19 02:16:05;;;;;;;7.90;4.30;;;;;;;24.96;100.00;101252.31;2074264;28;20217;-68
2023/07/19 02:17:05;;;;;;;7.27;4.43;;;;;;;24.94;100.00;101237.88;2072500;28;20193;-68
2023/07/19 02:18:06;;;;;;;6.53;4.17;;;;;;;24.86;100.00;101231.97;2076594;28;20781;-67
2023/07/19 02:19:07;;;;;;;7.90;4.30;;;;;;;24.93;100.00;101242.78;2080424;28;20193;-67
2023/07/19 02:20:08;;;;;;;8.57;4.47;;;;;;;24.93;100.00;101237.09;2078814;28;20181;-67
2023/07/19 02:21:08;;;;;;;9.27;4.80;;;;;;;24.95;100.00;101243.03;2072182;28;20267;-67
2023/07/19 02:22:09;;;;;;;6.23;4.00;;;;;;;24.95;100.00;101234.53;2073212;28;20713;-67
2023/07/19 02:23:10;;;;;;;7.17;4.30;;;;;;;24.96;100.00;101238.91;2072206;28;20197;-67
2023/07/19 02:24:10;;;;;;;6.80;4.10;;;;;;;24.97;100.00;101229.13;2072465;28;20279;-68
2023/07/19 02:25:11;;;;;;;6.97;4.20;;;;;;;24.99;100.00;101237.09;2072349;28;20678;-68
2023/07/19 02:26:11;;;;;;;7.20;3.97;;;;;;;24.99;100.00;101235.06;2072303;28;20227;-68
2023/07/19 02:27:12;;;;;;;7.13;4.47;;;;;;;25.02;100.00;101238.94;2072464;28;20220;-68
2023/07/19 02:28:12;;;;;;;10.93;5.03;;;;;;;25.02;100.00;101230.41;2072519;28;20327;-68
2023/07/19 02:29:13;;;;;;;8.80;4.20;;;;;;;25.01;100.00;101240.97;2072279;28;20213;-68
2023/07/19 02:30:13;;;;;;;10.20;4.43;;;;;;;25.04;100.00;101231.44;2072448;28;20186;-67
2023/07/19 02:31:13;;;;;;;9.53;4.40;;;;;;;24.98;100.00;101232.72;2075896;28;20299;-67
2023/07/19 02:32:14;;;;;;;11.03;4.50;;;;;;;25.01;100.00;101232.47;2072936;28;20197;-67
2023/07/19 02:33:15;;;;;;;9.80;4.53;;;;;;;24.85;100.00;101215.47;2072039;28;20710;-67
2023/07/19 02:34:18;;;;;;;14.20;4.27;;;;;;;25.01;100.00;101237.34;2072486;28;20770;-67
2023/07/19 02:35:19;;;;;;;10.30;5.13;;;;;;;24.98;100.00;101233.50;2072571;28;20201;-67
2023/07/19 02:36:19;;;;;;;9.60;4.67;;;;;;;24.03;100.00;101086.69;2072612;28;20221;-67
2023/07/19 02:37:19;;;;;;;8.07;4.70;;;;;;;24.99;100.00;101231.44;2072516;28;20249;-67
2023/07/19 02:38:21;;;;;;;10.13;4.00;;;;;;;24.57;100.00;101164.44;2072154;28;20209;-67
2023/07/19 02:39:22;;;;;;;7.90;4.60;;;;;;;25.02;100.00;101230.41;2072964;28;20177;-67
2023/07/19 02:40:22;;;;;;;10.90;4.53;;;;;;;24.96;100.00;101221.13;2075157;28;20335;-67
2023/07/19 02:41:22;;;;;;;7.77;4.33;;;;;;;25.00;100.00;101228.09;2073452;28;20741;-67
2023/07/19 02:42:23;;;;;;;8.57;4.90;;;;;;;25.00;100.00;101230.94;2077811;28;20200;-67
2023/07/19 02:43:23;;;;;;;8.77;4.80;;;;;;;24.99;100.00;101222.94;2080641;28;20192;-67
2023/07/19 02:44:24;;;;;;;8.97;5.07;;;;;;;24.90;100.00;101212.63;2077172;28;20202;-67
2023/07/19 02:45:24;;;;;;;10.73;5.37;;;;;;;25.05;100.00;101226.53;2072214;28;20225;-67
2023/07/19 02:46:24;;;;;;;7.47;4.90;;;;;;;25.03;100.00;101227.03;2072254;28;20170;-67
2023/07/19 02:47:25;;;;;;;10.70;5.50;;;;;;;25.03;100.00;101227.03;2073081;28;20181;-67
2023/07/19 02:48:25;;;;;;;8.43;5.33;;;;;;;25.04;100.00;101233.50;2072452;28;20197;-67
2023/07/19 02:49:26;;;;;;;7.10;5.40;;;;;;;25.01;100.00;101235.31;2072528;28;20275;-67
2023/07/19 02:50:26;;;;;;;8.40;5.90;;;;;;;25.01;100.00;101232.47;2072506;28;20213;-67
2023/07/19 02:51:27;;;;;;;8.10;5.30;;;;;;;25.02;100.00;101230.41;2072067;28;20292;-67
2023/07/19 02:52:27;;;;;;;11.47;6.27;;;;;;;25.03;100.00;101232.72;2074853;28;20181;-67
2023/07/19 02:53:27;;;;;;;9.60;5.57;;;;;;;24.96;100.00;101221.91;2078196;28;20271;-67
2023/07/19 02:54:28;;;;;;;11.37;5.70;;;;;;;24.95;100.00;101228.88;2072453;28;20182;-67
2023/07/19 02:55:28;;;;;;;11.53;5.03;;;;;;;24.57;100.00;101175.78;2072533;28;20177;-67
2023/07/19 02:56:28;;;;;;;11.83;5.40;;;;;;;24.21;100.00;101119.41;2081180;28;20296;-67
2023/07/19 02:57:29;;;;;;;8.87;4.87;;;;;;;24.87;100.00;101222.16;2073897;28;20189;-67
2023/07/19 02:58:29;;;;;;;12.03;5.10;;;;;;;24.82;100.00;101225.03;2072160;28;20331;-67
2023/07/19 02:59:30;;;;;;;11.50;5.17;;;;;;;24.80;100.00;101234.03;2072380;28;20647;-68
2023/07/19 03:00:30;;;;;;;8.77;4.77;;;;;;;24.79;100.00;101226.81;2075206;28;20539;-68
2023/07/19 03:01:31;;;;;;;7.83;5.20;;;;;;;24.72;100.00;101232.25;2077663;28;20173;-68
2023/07/19 03:02:31;;;;;;;11.00;5.10;;;;;;;24.64;100.00;101228.38;2072044;28;20220;-68
2023/07/19 03:03:32;;;;;;;11.40;5.40;;;;;;;24.60;100.00;101234.28;2072379;28;20205;-68
2023/07/19 03:04:32;;;;;;;9.17;5.03;;;;;;;24.60;100.00;101233.50;2072804;28;20182;-68
2023/07/19 03:05:40;;;;;;;9.00;5.30;;;;;;;24.55;100.00;101237.88;2072240;28;20225;-68
2023/07/19 03:06:40;;;;;;;7.27;5.13;;;;;;;24.39;100.00;101209.50;2072247;28;20198;-68
2023/07/19 03:07:40;;;;;;;9.70;5.43;;;;;;;24.22;100.00;101191.75;2072236;28;20267;-68
2023/07/19 03:08:43;;;;;;;9.37;5.43;;;;;;;24.47;100.00;101236.06;2072149;28;20198;-68
2023/07/19 03:09:43;;;;;;;7.10;4.93;;;;;;;24.47;100.00;101233.97;2072371;28;20698;-68
2023/07/19 03:10:43;;;;;;;9.40;5.47;;;;;;;24.44;100.00;101234.25;2072169;28;20240;-67
2023/07/19 03:11:44;;;;;;;6.77;5.43;;;;;;;24.43;100.00;101235.53;2071973;28;20195;-67
2023/07/19 03:12:44;;;;;;;10.37;5.37;;;;;;;24.43;100.00;101235.53;2071849;28;20255;-67
2023/07/19 03:13:45;;;;;;;6.70;4.80;;;;;;;24.42;100.00;101234.75;2072786;28;20256;-67
2023/07/19 03:14:45;;;;;;;7.67;5.00;;;;;;;24.45;100.00;101233.72;2075483;28;20191;-67
2023/07/19 03:15:46;;;;;;;9.03;5.53;;;;;;;24.42;100.00;101228.31;2073911;28;20581;-67
2023/07/19 03:16:47;;;;;;;7.67;5.27;;;;;;;24.40;100.00;101231.66;2072499;28;20189;-69
2023/07/19 03:17:47;;;;;;;8.03;5.20;;;;;;;24.41;100.00;101233.22;2072221;28;20212;-68
2023/07/19 03:18:48;;;;;;;7.37;5.43;;;;;;;24.45;100.00;101238.63;2072036;28;20568;-67
2023/07/19 03:19:48;;;;;;;7.20;5.10;;;;;;;24.47;100.00;101227.56;2074217;28;20197;-67
2023/07/19 03:20:59;;;;;;;8.77;5.30;;;;;;;24.50;100.00;101227.31;2080558;28;20177;-67
2023/07/19 03:22:00;;;;;;;10.47;5.80;;;;;;;24.53;100.00;101223.44;2086373;28;20168;-67
2023/07/19 03:23:00;;;;;;;8.17;5.20;;;;;;;24.52;100.00;101224.72;2072518;28;20227;-67
2023/07/19 03:24:01;;;;;;;6.67;5.27;;;;;;;24.54;100.00;101207.22;2072405;28;20243;-67
2023/07/19 03:25:02;;;;;;;6.93;5.27;;;;;;;24.56;100.00;101218.81;2072026;28;20212;-67
2023/07/19 03:26:03;;;;;;;7.87;5.50;;;;;;;24.58;100.00;101213.41;2072033;28;20193;-67
2023/07/19 03:27:04;;;;;;;8.73;5.43;;;;;;;24.59;100.00;101214.97;2076462;28;20686;-67
2023/07/19 03:28:05;;;;;;;9.70;5.47;;;;;;;23.94;100.00;101105.97;2076480;28;20565;-67
2023/07/19 03:29:05;;;;;;;9.70;5.73;;;;;;;24.70;100.00;101207.25;2071742;28;20197;-67
2023/07/19 03:30:07;;;;;;;9.00;5.27;;;;;;;24.73;100.00;101209.06;2071511;28;20181;-67
2023/07/19 03:31:11;;;;;;;9.07;5.33;;;;;;;24.75;100.00;101195.13;2071134;28;20199;-67
2023/07/19 03:32:12;;;;;;;10.27;5.60;;;;;;;24.77;100.00;101205.97;2072553;28;20181;-67
2023/07/19 03:33:12;;;;;;;6.93;4.90;;;;;;;24.78;100.00;101191.25;2071662;28;20667;-67
2023/07/19 03:34:14;;;;;;;9.27;4.90;;;;;;;24.78;100.00;101199.00;2079084;28;20597;-67
2023/07/19 03:35:15;;;;;;;6.63;5.03;;;;;;;24.80;100.00;101191.50;2080161;28;20204;-67
2023/07/19 03:36:15;;;;;;;10.40;5.33;;;;;;;24.74;100.00;101182.25;2075212;28;20247;-67
2023/07/19 03:37:16;;;;;;;15.87;5.37;;;;;;;24.77;100.00;101191.78;2072075;28;20621;-67
2023/07/19 03:38:18;;;;;;;12.90;5.40;;;;;;;24.76;100.00;101182.50;2072002;28;20205;-67
2023/07/19 03:39:18;;;;;;;12.43;5.40;;;;;;;24.74;100.00;101176.59;2071887;28;20209;-67
2023/07/19 03:40:19;;;;;;;16.13;5.87;;;;;;;24.77;100.00;101180.44;2073506;28;20181;-67
2023/07/19 03:41:19;;;;;;;16.23;5.43;;;;;;;24.78;100.00;101177.06;2072396;28;20255;-67
2023/07/19 03:42:20;;;;;;;17.47;6.53;;;;;;;24.29;100.00;101109.09;2071821;28;20217;-67
2023/07/19 03:43:20;;;;;;;16.50;6.10;;;;;;;24.68;100.00;101173.00;2072054;28;20212;-67
2023/07/19 03:44:20;;;;;;;30.67;7.70;;;;;;;24.75;100.00;101183.78;2071901;28;20288;-67
2023/07/19 03:45:21;;;;;;;26.00;6.77;;;;;;;24.77;100.00;101184.03;2071883;28;20248;-67
2023/07/19 03:46:21;;;;;;;15.47;5.63;;;;;;;24.80;100.00;101188.69;2071994;28;20193;-67
2023/07/19 03:47:22;;;;;;;10.77;5.40;;;;;;;24.74;100.00;101179.41;2072380;28;20643;-67
2023/07/19 03:48:22;;;;;;;11.03;5.10;;;;;;;24.67;100.00;101182.00;2071830;28;20588;-67
2023/07/19 03:49:23;;;;;;;6.60;4.70;;;;;;;24.62;100.00;101182.78;2072652;28;20186;-67
2023/07/19 03:50:24;;;;;;;11.00;4.80;;;;;;;24.55;100.00;101183.25;2071992;28;20201;-67
2023/07/19 03:51:25;;;;;;;9.40;5.40;;;;;;;24.56;100.00;101181.97;2071862;28;20659;-67
2023/07/19 03:52:26;;;;;;;12.40;5.50;;;;;;;23.89;100.00;101075.63;2071710;28;20654;-67
2023/07/19 03:53:28;;;;;;;9.00;5.00;;;;;;;24.52;100.00;101179.38;2072006;28;20200;-67
2023/07/19 03:54:28;;;;;;;10.10;5.50;;;;;;;24.48;100.00;101187.38;2072107;28;20197;-67
2023/07/19 03:55:28;;;;;;;8.13;4.90;;;;;;;24.04;100.00;101122.22;2072114;28;20237;-67
2023/07/19 03:56:29;;;;;;;6.97;5.07;;;;;;;24.33;100.00;101178.38;2072018;28;20216;-67
2023/07/19 03:57:29;;;;;;;7.47;4.40;;;;;;;24.35;100.00;101178.63;2072113;28;20184;-67
2023/07/19 03:58:30;;;;;;;8.40;4.70;;;;;;;23.72;100.00;101074.78;2080503;28;20566;-67
2023/07/19 03:59:30;;;;;;;7.67;4.50;;;;;;;24.42;100.00;101183.75;2080149;28;20293;-67
2023/07/19 04:00:31;;;;;;;8.83;4.80;;;;;;;24.42;100.00;101180.94;2074185;28;20201;-67
2023/07/19 04:01:31;;;;;;;5.50;4.50;;;;;;;24.41;100.00;101182.22;2071617;28;20201;-67
2023/07/19 04:02:31;;;;;;;9.07;4.50;;;;;;;24.43;100.00;101178.88;2071595;28;20285;-67
2023/07/19 04:03:32;;;;;;;6.73;4.57;;;;;;;23.49;100.00;101033.63;2071242;28;20182;-67
2023/07/19 04:04:32;;;;;;;9.80;4.60;;;;;;;24.45;100.00;101187.63;2071281;28;20182;-67
2023/07/19 04:05:33;;;;;;;7.77;4.97;;;;;;;24.45;100.00;101190.44;2071856;28;20209;-67
2023/07/19 04:06:33;;;;;;;6.93;4.87;;;;;;;24.48;100.00;101195.88;2072585;28;20240;-67
2023/07/19 04:07:33;;;;;;;6.73;5.20;;;;;;;24.52;100.00;101195.63;2072143;28;20224;-67
2023/07/19 04:08:34;;;;;;;6.70;4.90;;;;;;;24.50;100.00;101192.50;2077697;28;20185;-67
2023/07/19 04:09:35;;;;;;;11.10;5.20;;;;;;;24.07;100.00;101131.75;2075073;28;20209;-67
2023/07/19 04:10:35;;;;;;;9.20;5.27;;;;;;;24.53;100.00;101197.94;2071970;28;20289;-68
2023/07/19 04:11:36;;;;;;;7.53;4.80;;;;;;;24.55;100.00;101194.56;2073758;28;20201;-68
2023/07/19 04:12:36;;;;;;;7.47;4.90;;;;;;;24.54;100.00;101202.31;2079578;28;20667;-68
2023/07/19 04:13:36;;;;;;;9.50;5.20;;;;;;;24.60;100.00;101205.16;2079661;28;20565;-68
2023/07/19 04:14:37;;;;;;;7.53;5.00;;;;;;;24.60;100.00;101199.50;2074827;28;20225;-68
2023/07/19 04:15:37;;;;;;;7.10;4.97;;;;;;;24.50;100.00;101178.34;2072512;28;20256;-68
2023/07/19 04:16:38;;;;;;;8.27;5.47;;;;;;;24.61;100.00;101186.91;2071870;28;20292;-68
2023/07/19 04:17:38;;;;;;;11.20;5.57;;;;;;;24.65;100.00;101204.41;2071928;28;20194;-68
2023/07/19 04:18:39;;;;;;;6.27;4.90;;;;;;;24.67;100.00;101194.09;2075842;28;20193;-68
2023/07/19 04:19:39;;;;;;;8.47;4.73;;;;;;;24.67;100.00;101185.59;2077136;28;20204;-68
2023/07/19 04:20:39;;;;;;;7.90;4.83;;;;;;;24.71;100.00;101188.94;2071949;28;20214;-68
2023/07/19 04:21:40;;;;;;;6.13;4.70;;;;;;;24.73;100.00;101179.94;2071539;28;20274;-68
2023/07/19 04:22:40;;;;;;;8.00;5.10;;;;;;;24.76;100.00;101187.38;2072213;28;20626;-67
2023/07/19 04:23:41;;;;;;;6.63;4.80;;;;;;;24.78;100.00;101176.31;2071921;28;20208;-67
2023/07/19 04:24:41;;;;;;;8.77;4.83;;;;;;;24.79;100.00;101181.47;2071661;28;20257;-67
2023/07/19 04:25:41;;;;;;;7.30;5.07;;;;;;;24.79;100.00;101186.34;2071679;28;20201;-67
2023/07/19 04:26:42;;;;;;;6.27;4.50;;;;;;;24.76;100.00;101182.50;2071694;28;20219;-67
2023/07/19 04:27:42;;;;;;;6.10;5.03;;;;;;;24.77;100.00;101183.28;2072120;28;20194;-67
2023/07/19 04:28:43;;;;;;;7.37;4.80;;;;;;;24.80;100.00;101188.69;2071690;28;20188;-67
2023/07/19 04:29:43;;;;;;;9.70;4.93;;;;;;;24.75;100.00;101185.84;2071876;28;20228;-67
2023/07/19 04:30:44;;;;;;;7.00;4.53;;;;;;;23.93;100.00;101057.09;2072589;28;20184;-67
2023/07/19 04:31:45;;;;;;;8.40;5.20;;;;;;;24.89;100.00;101191.25;2071445;28;20276;-67
2023/07/19 04:32:46;;;;;;;9.13;4.70;;;;;;;24.92;100.00;101192.28;2071484;28;20197;-67
2023/07/19 04:33:46;;;;;;;8.77;5.40;;;;;;;24.94;100.00;101201.81;2071843;28;20197;-67
2023/07/19 04:34:46;;;;;;;13.00;5.67;;;;;;;24.96;100.00;101192.75;2071945;28;20556;-67
2023/07/19 04:35:47;;;;;;;5.43;4.30;;;;;;;24.88;100.00;101195.34;2075350;28;20200;-67
2023/07/19 04:36:48;;;;;;;7.37;4.23;;;;;;;24.81;100.00;101195.09;2079838;28;20197;-67
2023/07/19 04:37:49;;;;;;;6.57;4.00;;;;;;;24.84;100.00;101203.38;2078666;28;20192;-67